createdAt,value
2017-11-15T00:00:37.387Z,35.42
2017-11-15T00:03:04.855Z,35.75
2017-11-15T00:05:32.306Z,38.20
2017-11-15T00:07:59.768Z,37.30
2017-11-15T00:10:27.231Z,35.95
2017-11-15T00:12:54.678Z,40.50
2017-11-15T00:15:22.146Z,39.03
2017-11-15T00:17:49.602Z,37.58
2017-11-15T00:20:17.062Z,41.45
2017-11-15T00:22:44.518Z,43.90
2017-11-15T00:25:11.982Z,37.20
2017-11-15T00:27:40.224Z,42.60
2017-11-15T00:30:07.671Z,40.75
2017-11-15T00:32:35.130Z,37.78
2017-11-15T00:35:02.957Z,39.90
2017-11-15T00:37:31.170Z,42.10
2017-11-15T00:39:58.640Z,40.78
2017-11-15T00:42:26.102Z,35.83
2017-11-15T00:44:53.573Z,39.17
2017-11-15T00:47:21.031Z,42.17
2017-11-15T00:49:48.490Z,44.72
2017-11-15T00:52:15.942Z,41.15
2017-11-15T00:54:43.394Z,43.08
2017-11-15T00:57:10.859Z,42.15
2017-11-15T00:59:38.312Z,39.90
2017-11-15T01:02:05.783Z,46.60
2017-11-15T01:04:34.006Z,44.08
2017-11-15T01:07:01.474Z,42.75
2017-11-15T01:09:28.943Z,45.22
2017-11-15T01:11:56.402Z,42.40
2017-11-15T01:14:23.951Z,41.00
2017-11-15T01:16:51.509Z,44.63
2017-11-15T01:19:18.962Z,40.38
2017-11-15T01:21:46.426Z,44.33
2017-11-15T01:24:13.884Z,48.95
2017-11-15T01:26:41.342Z,47.10
2017-11-15T01:29:08.807Z,48.30
2017-11-15T01:31:36.259Z,51.42
2017-11-15T01:34:03.724Z,43.00
2017-11-15T01:36:31.178Z,43.60
2017-11-15T01:38:58.638Z,41.35
2017-11-15T01:41:26.085Z,41.17
2017-11-15T01:43:53.550Z,35.67
2017-11-15T01:46:21.002Z,39.03
2017-11-15T01:48:48.466Z,33.92
2017-11-15T01:51:16.685Z,38.47
2017-11-15T01:53:44.151Z,36.33
2017-11-15T01:56:11.609Z,32.60
2017-11-15T01:58:39.074Z,30.23
2017-11-15T02:01:14.360Z,31.17
2017-11-15T02:03:41.824Z,28.90
2017-11-15T02:06:10.047Z,31.48
2017-11-15T02:08:37.519Z,27.60
2017-11-15T02:11:04.965Z,29.95
2017-11-15T02:13:32.421Z,41.03
2017-11-15T02:15:59.880Z,35.70
2017-11-15T02:18:27.347Z,35.63
2017-11-15T02:20:54.790Z,35.85
2017-11-15T02:23:22.315Z,35.78
2017-11-15T02:25:49.820Z,36.33
2017-11-15T02:28:17.275Z,37.60
2017-11-15T02:30:44.738Z,37.50
2017-11-15T02:33:12.958Z,36.03
2017-11-15T02:35:40.429Z,38.63
2017-11-15T02:38:07.901Z,46.50
2017-11-15T02:40:35.366Z,43.25
2017-11-15T02:43:02.940Z,46.03
2017-11-15T02:45:30.402Z,40.12
2017-11-15T02:47:57.855Z,40.78
2017-11-15T02:50:25.411Z,43.70
2017-11-15T02:52:52.879Z,42.35
2017-11-15T02:55:20.352Z,43.30
2017-11-15T02:57:48.577Z,36.10
2017-11-15T03:00:16.039Z,36.47
2017-11-15T03:02:43.498Z,34.17
2017-11-15T03:05:10.995Z,37.95
2017-11-15T03:07:39.222Z,38.45
2017-11-15T03:10:06.682Z,43.30
2017-11-15T03:12:34.158Z,60.35
2017-11-15T03:15:01.610Z,54.80
2017-11-15T03:17:29.087Z,53.47
2017-11-15T03:19:56.538Z,62.25
2017-11-15T03:22:24.014Z,44.95
2017-11-15T03:24:52.235Z,60.10
2017-11-15T03:27:20.743Z,61.65
2017-11-15T03:29:48.201Z,58.05
2017-11-15T03:32:15.667Z,61.55
2017-11-15T03:34:43.127Z,53.50
2017-11-15T03:37:10.594Z,53.95
2017-11-15T03:39:38.832Z,54.53
2017-11-15T03:42:06.399Z,57.72
2017-11-15T03:44:33.860Z,65.82
2017-11-15T03:47:01.341Z,57.17
2017-11-15T03:49:29.589Z,58.47
2017-11-15T03:51:57.145Z,62.75
2017-11-15T03:54:24.620Z,69.35
2017-11-15T03:56:52.180Z,60.92
2017-11-15T03:59:19.642Z,54.72
2017-11-15T04:01:47.098Z,64.05
2017-11-15T04:04:14.568Z,66.78
2017-11-15T04:06:42.786Z,68.70
2017-11-15T04:09:10.251Z,60.55
2017-11-15T04:11:37.718Z,70.97
2017-11-15T04:14:05.191Z,81.87
2017-11-15T04:16:33.465Z,71.75
2017-11-15T04:19:00.934Z,74.07
2017-11-15T04:21:28.470Z,62.33
2017-11-15T04:23:55.940Z,69.25
2017-11-15T04:26:23.397Z,57.20
2017-11-15T04:28:50.864Z,58.67
2017-11-15T04:31:19.089Z,67.22
2017-11-15T04:33:46.678Z,60.35
2017-11-15T04:36:14.137Z,64.72
2017-11-15T04:38:41.594Z,53.15
2017-11-15T04:41:09.679Z,55.47
2017-11-15T04:43:37.143Z,52.70
2017-11-15T04:46:04.603Z,55.55
2017-11-15T04:48:32.824Z,54.75
2017-11-15T04:51:00.303Z,58.22
2017-11-15T04:53:27.758Z,53.28
2017-11-15T04:55:55.227Z,53.78
2017-11-15T04:58:22.686Z,55.28
2017-11-15T05:00:51.661Z,61.88
2017-11-15T05:03:19.118Z,60.78
2017-11-15T05:05:46.590Z,60.50
2017-11-15T05:08:14.047Z,66.12
2017-11-15T05:10:41.513Z,53.42
2017-11-15T05:13:08.968Z,59.67
2017-11-15T05:15:36.430Z,60.80
2017-11-15T05:18:04.649Z,63.63
2017-11-15T05:20:32.122Z,57.10
2017-11-15T05:22:59.578Z,65.43
2017-11-15T05:25:27.046Z,67.05
2017-11-15T05:27:54.512Z,84.82
2017-11-15T05:30:21.979Z,56.25
2017-11-15T05:32:49.434Z,66.35
2017-11-15T05:35:16.908Z,58.65
2017-11-15T05:37:45.146Z,56.58
2017-11-15T05:40:12.633Z,58.28
2017-11-15T05:42:40.183Z,52.75
2017-11-15T05:45:07.638Z,53.67
2017-11-15T05:47:35.107Z,48.67
2017-11-15T05:50:03.335Z,52.10
2017-11-15T05:52:30.801Z,60.70
2017-11-15T05:54:58.253Z,56.40
2017-11-15T05:57:25.714Z,60.60
2017-11-15T05:59:53.297Z,54.88
2017-11-15T06:02:20.762Z,50.70
2017-11-15T06:04:48.217Z,49.65
2017-11-15T06:07:15.685Z,51.03
2017-11-15T06:09:44.065Z,59.00
2017-11-15T06:12:11.494Z,63.33
2017-11-15T06:14:38.966Z,68.65
2017-11-15T06:17:06.523Z,59.95
2017-11-15T06:19:33.953Z,48.00
2017-11-15T06:22:01.422Z,43.85
2017-11-15T06:24:29.575Z,46.72
2017-11-15T06:26:57.202Z,61.15
2017-11-15T06:29:24.630Z,57.25
2017-11-15T06:31:52.130Z,44.75
2017-11-15T06:34:19.659Z,60.55
2017-11-15T06:36:47.055Z,47.35
2017-11-15T06:39:14.490Z,61.08
2017-11-15T06:41:41.948Z,46.28
2017-11-15T06:44:09.417Z,57.62
2017-11-15T06:46:36.873Z,40.00
2017-11-15T06:49:04.335Z,61.10
2017-11-15T06:51:31.798Z,52.62
2017-11-15T06:53:59.262Z,51.03
2017-11-15T06:56:26.723Z,46.72
2017-11-15T06:58:54.190Z,41.95
2017-11-15T07:01:21.646Z,45.60
2017-11-15T07:03:49.108Z,50.45
2017-11-15T07:06:16.567Z,47.70
2017-11-15T07:08:44.122Z,58.47
2017-11-15T07:11:11.581Z,44.60
2017-11-15T07:13:39.049Z,40.97
2017-11-15T07:16:06.499Z,42.53
2017-11-15T07:18:33.978Z,37.50
2017-11-15T07:21:02.206Z,38.47
2017-11-15T07:23:29.661Z,42.40
2017-11-15T07:25:57.130Z,40.55
2017-11-15T07:28:24.694Z,41.15
2017-11-15T07:30:52.159Z,33.42
2017-11-15T07:33:19.617Z,37.58
2017-11-15T07:35:47.081Z,40.72
2017-11-15T07:38:14.624Z,48.70
2017-11-15T07:40:42.089Z,44.45
2017-11-15T07:43:09.543Z,42.42
2017-11-15T07:45:37.098Z,44.22
2017-11-15T07:48:04.655Z,46.67
2017-11-15T07:50:32.123Z,39.53
2017-11-15T07:52:59.582Z,33.85
2017-11-15T07:55:27.036Z,33.50
2017-11-15T07:57:54.491Z,35.15
2017-11-15T08:00:21.955Z,34.63
2017-11-15T08:02:49.415Z,36.15
2017-11-15T08:05:16.935Z,38.92
2017-11-15T08:07:44.399Z,37.67
2017-11-15T08:10:11.872Z,36.85
2017-11-15T08:12:39.323Z,38.63
2017-11-15T08:15:06.786Z,41.72
2017-11-15T08:17:34.259Z,45.03
2017-11-15T08:20:01.713Z,44.90
2017-11-15T08:22:29.173Z,55.80
2017-11-15T08:24:56.636Z,55.97
2017-11-15T08:27:24.097Z,46.88
2017-11-15T08:29:52.322Z,44.15
2017-11-15T08:32:19.786Z,47.45
2017-11-15T08:34:47.250Z,56.10
2017-11-15T08:37:14.714Z,46.58
2017-11-15T08:39:42.263Z,41.35
2017-11-15T08:42:09.727Z,49.88
2017-11-15T08:44:37.181Z,42.97
2017-11-15T08:47:04.654Z,51.20
2017-11-15T08:49:32.111Z,41.88
2017-11-15T08:51:59.654Z,42.72
2017-11-15T08:54:27.106Z,36.72
2017-11-15T08:56:54.573Z,42.45
2017-11-15T08:59:22.027Z,37.78
2017-11-15T09:01:49.495Z,44.47
2017-11-15T09:04:16.951Z,41.15
2017-11-15T09:06:44.403Z,37.90
2017-11-15T09:09:11.862Z,39.72
2017-11-15T09:11:39.311Z,39.10
2017-11-15T09:14:06.862Z,43.25
2017-11-15T09:16:34.314Z,41.95
2017-11-15T09:19:01.775Z,39.58
2017-11-15T09:21:29.227Z,38.72
2017-11-15T09:23:56.754Z,35.53
2017-11-15T09:26:24.210Z,37.50
2017-11-15T09:28:51.659Z,39.50
2017-11-15T09:31:19.154Z,37.78
2017-11-15T09:33:46.610Z,31.75
2017-11-15T09:36:14.067Z,36.08
2017-11-15T09:38:41.526Z,35.75
2017-11-15T09:41:08.975Z,34.90
2017-11-15T09:43:36.431Z,37.03
2017-11-15T09:46:03.883Z,37.83
2017-11-15T09:48:31.354Z,37.85
2017-11-15T09:50:58.805Z,36.83
2017-11-15T09:53:26.259Z,38.03
2017-11-15T09:55:53.717Z,40.08
2017-11-15T09:58:21.175Z,37.88
2017-11-15T10:00:48.638Z,38.85
2017-11-15T10:03:16.094Z,43.08
2017-11-15T10:05:43.549Z,41.33
2017-11-15T10:08:11.003Z,38.33
2017-11-15T10:10:38.466Z,43.30
2017-11-15T10:13:05.916Z,40.15
2017-11-15T10:15:33.378Z,43.80
2017-11-15T10:18:00.835Z,41.15
2017-11-15T10:20:28.304Z,41.72
2017-11-15T10:22:55.751Z,38.38
2017-11-15T10:25:23.208Z,44.38
2017-11-15T10:27:50.667Z,44.92
2017-11-15T10:30:18.139Z,46.15
2017-11-15T10:32:45.682Z,50.38
2017-11-15T10:35:13.142Z,49.83
2017-11-15T10:37:40.591Z,45.10
2017-11-15T10:40:08.064Z,44.25
2017-11-15T10:42:35.506Z,44.65
2017-11-15T10:45:02.968Z,46.10
2017-11-15T10:47:30.415Z,40.92
2017-11-15T10:49:57.875Z,41.47
2017-11-15T10:52:25.323Z,36.03
2017-11-15T10:54:52.798Z,38.83
2017-11-15T10:57:20.244Z,37.78
2017-11-15T10:59:47.696Z,40.53
2017-11-15T11:02:15.151Z,35.95
2017-11-15T11:04:42.608Z,35.75
2017-11-15T11:07:10.060Z,35.78
2017-11-15T11:09:37.511Z,34.55
2017-11-15T11:12:04.984Z,29.85
2017-11-15T11:14:32.433Z,32.55
2017-11-15T11:16:59.894Z,29.40
2017-11-15T11:19:27.342Z,28.90
2017-11-15T11:21:54.803Z,28.87
2017-11-15T11:24:22.254Z,29.63
2017-11-15T11:26:49.716Z,28.45
2017-11-15T11:29:17.165Z,28.67
2017-11-15T11:31:44.623Z,32.13
2017-11-15T11:34:12.091Z,30.37
2017-11-15T11:36:39.542Z,31.15
2017-11-15T11:39:06.992Z,31.67
2017-11-15T11:41:34.438Z,33.63
2017-11-15T11:44:01.887Z,31.05
2017-11-15T11:46:29.366Z,31.33
2017-11-15T11:48:56.819Z,34.47
2017-11-15T11:51:24.271Z,34.17
2017-11-15T11:53:51.729Z,32.38
2017-11-15T11:56:19.186Z,33.25
2017-11-15T11:58:46.661Z,30.52
2017-11-15T12:01:14.114Z,29.33
2017-11-15T12:03:41.623Z,29.10
2017-11-15T12:06:09.081Z,30.62
2017-11-15T12:08:37.295Z,29.48
2017-11-15T12:11:04.745Z,29.65
2017-11-15T12:13:32.211Z,25.17
2017-11-15T12:15:59.663Z,26.40
2017-11-15T12:18:27.115Z,26.05
2017-11-15T12:20:54.567Z,27.25
2017-11-15T12:23:22.032Z,26.33
2017-11-15T12:25:49.500Z,25.73
2017-11-15T12:28:16.938Z,25.65
2017-11-15T12:30:44.386Z,24.10
2017-11-15T12:33:11.870Z,23.12
2017-11-15T12:35:39.330Z,23.75
2017-11-15T12:38:06.785Z,24.10
2017-11-15T12:40:34.268Z,24.02
2017-11-15T12:43:01.803Z,23.55
2017-11-15T12:45:29.261Z,25.90
2017-11-15T12:47:56.715Z,23.08
2017-11-15T12:50:24.167Z,24.60
2017-11-15T12:52:51.623Z,22.95
2017-11-15T12:55:19.083Z,22.40
2017-11-15T12:57:46.535Z,22.60
2017-11-15T13:00:13.996Z,23.85
2017-11-15T13:02:41.447Z,23.38
2017-11-15T13:05:08.906Z,22.75
2017-11-15T13:07:36.368Z,22.27
2017-11-15T13:10:03.928Z,20.80
2017-11-15T13:12:31.382Z,21.05
2017-11-15T13:14:58.840Z,22.15
2017-11-15T13:17:26.293Z,22.17
2017-11-15T13:19:53.751Z,21.20
2017-11-15T13:22:21.206Z,21.75
2017-11-15T13:24:48.667Z,21.45
2017-11-15T13:27:16.123Z,20.52
2017-11-15T13:29:43.583Z,21.58
2017-11-15T13:32:11.036Z,19.95
2017-11-15T13:34:38.494Z,21.15
2017-11-15T13:37:05.941Z,20.65
2017-11-15T13:39:33.420Z,19.20
2017-11-15T13:42:00.867Z,20.10
2017-11-15T13:44:28.320Z,20.15
2017-11-15T13:46:55.879Z,20.00
2017-11-15T13:49:23.333Z,20.27
2017-11-15T13:51:50.787Z,17.45
2017-11-15T13:54:18.239Z,18.55
2017-11-15T13:56:45.803Z,18.62
2017-11-15T13:59:13.780Z,15.20
2017-11-15T14:01:41.234Z,16.65
2017-11-15T14:04:08.690Z,17.20
2017-11-15T14:06:36.156Z,18.40
2017-11-15T14:09:03.604Z,15.95
2017-11-15T14:11:31.063Z,16.17
2017-11-15T14:13:58.623Z,15.77
2017-11-15T14:16:26.083Z,16.75
2017-11-15T14:18:53.539Z,16.05
2017-11-15T14:21:21.000Z,16.70
2017-11-15T14:23:48.542Z,18.10
2017-11-15T14:26:15.999Z,15.80
2017-11-15T14:28:43.447Z,15.35
2017-11-15T14:31:11.116Z,15.27
2017-11-15T14:33:38.677Z,15.27
2017-11-15T14:36:06.135Z,15.60
2017-11-15T14:38:33.593Z,17.00
2017-11-15T14:41:01.152Z,16.37
2017-11-15T14:43:28.607Z,14.77
2017-11-15T14:45:56.056Z,16.40
2017-11-15T14:48:23.619Z,15.30
2017-11-15T14:50:51.070Z,15.05
2017-11-15T14:53:18.528Z,16.27
2017-11-15T14:55:45.980Z,17.77
2017-11-15T14:58:13.438Z,19.65
2017-11-15T15:00:40.895Z,25.42
2017-11-15T15:03:08.349Z,25.48
2017-11-15T15:05:35.799Z,24.15
2017-11-15T15:08:03.281Z,27.30
2017-11-15T15:10:30.726Z,24.42
2017-11-15T15:12:58.191Z,25.50
2017-11-15T15:15:25.640Z,28.40
2017-11-15T15:17:53.107Z,26.90
2017-11-15T15:20:22.066Z,26.15
2017-11-15T15:22:49.522Z,28.10
2017-11-15T15:25:16.978Z,28.12
2017-11-15T15:27:44.445Z,28.17
2017-11-15T15:30:11.891Z,25.42
2017-11-15T15:32:39.351Z,24.10
2017-11-15T15:35:06.801Z,26.48
2017-11-15T15:37:34.252Z,25.73
2017-11-15T15:40:01.715Z,25.83
2017-11-15T15:42:29.176Z,25.70
2017-11-15T15:44:56.866Z,26.25
2017-11-15T15:47:24.427Z,24.63
2017-11-15T15:49:51.885Z,26.20
2017-11-15T15:52:19.339Z,26.95
2017-11-15T15:54:46.791Z,28.62
2017-11-15T15:57:14.255Z,24.50
2017-11-15T15:59:41.709Z,24.48
2017-11-15T16:02:09.156Z,24.60
2017-11-15T16:04:36.614Z,24.30
2017-11-15T16:07:04.063Z,22.95
2017-11-15T16:09:31.539Z,27.48
2017-11-15T16:11:58.982Z,25.83
2017-11-15T16:14:26.433Z,28.98
2017-11-15T16:16:53.890Z,25.10
2017-11-15T16:19:21.333Z,26.87
2017-11-15T16:21:48.821Z,25.05
2017-11-15T16:24:16.374Z,25.23
2017-11-15T16:26:43.826Z,26.17
2017-11-15T16:29:11.282Z,24.83
2017-11-15T16:31:38.733Z,24.85
2017-11-15T16:34:06.187Z,25.08
2017-11-15T16:36:33.644Z,23.62
2017-11-15T16:39:01.091Z,26.83
2017-11-15T16:41:28.547Z,24.65
2017-11-15T16:43:56.024Z,24.52
2017-11-15T16:46:23.587Z,27.40
2017-11-15T16:48:51.035Z,26.45
2017-11-15T16:51:18.490Z,27.27
2017-11-15T16:53:45.957Z,23.92
2017-11-15T16:56:13.411Z,29.33
2017-11-15T16:58:40.868Z,28.65
2017-11-15T17:01:08.309Z,32.35
2017-11-15T17:03:35.767Z,43.45
2017-11-15T17:06:03.238Z,46.03
2017-11-15T17:08:30.696Z,44.83
2017-11-15T17:10:58.139Z,43.63
2017-11-15T17:13:25.606Z,37.13
2017-11-15T17:15:53.063Z,35.70
2017-11-15T17:18:20.518Z,31.73
2017-11-15T17:20:48.080Z,28.95
2017-11-15T17:23:15.639Z,24.55
2017-11-15T17:25:43.088Z,28.62
2017-11-15T17:28:10.538Z,29.15
2017-11-15T17:30:38.006Z,29.25
2017-11-15T17:33:05.471Z,28.60
2017-11-15T17:35:32.910Z,30.62
2017-11-15T17:38:00.475Z,29.25
2017-11-15T17:40:27.914Z,30.60
2017-11-15T17:42:55.395Z,28.12
2017-11-15T17:45:22.842Z,30.20
2017-11-15T17:47:50.307Z,27.83
2017-11-15T17:50:17.865Z,30.83
2017-11-15T17:52:45.339Z,29.95
2017-11-15T17:55:12.781Z,33.53
2017-11-15T17:57:40.232Z,31.15
2017-11-15T18:00:07.691Z,31.15
2017-11-15T18:02:35.145Z,27.75
2017-11-15T18:05:02.607Z,30.70
2017-11-15T18:07:30.059Z,29.75
2017-11-15T18:09:57.515Z,25.85
2017-11-15T18:12:24.962Z,29.33
2017-11-15T18:14:52.427Z,30.73
2017-11-15T18:17:19.875Z,31.02
2017-11-15T18:19:47.331Z,33.13
2017-11-15T18:22:14.786Z,40.83
2017-11-15T18:24:42.246Z,44.80
2017-11-15T18:27:09.700Z,41.75
2017-11-15T18:29:37.142Z,41.22
2017-11-15T18:32:04.626Z,42.58
2017-11-15T18:34:32.087Z,40.38
2017-11-15T18:36:59.542Z,37.50
2017-11-15T18:39:26.993Z,33.97
2017-11-15T18:41:54.452Z,36.78
2017-11-15T18:44:21.929Z,34.25
2017-11-15T18:46:49.375Z,37.70
2017-11-15T18:49:16.826Z,34.92
2017-11-15T18:51:44.290Z,33.92
2017-11-15T18:54:11.746Z,32.97
2017-11-15T18:56:39.204Z,31.48
2017-11-15T18:59:06.657Z,30.33
2017-11-15T19:01:34.116Z,29.00
2017-11-15T19:04:01.566Z,26.95
2017-11-15T19:06:29.028Z,27.50
2017-11-15T19:08:56.488Z,26.85
2017-11-15T19:11:24.034Z,27.25
2017-11-15T19:13:51.494Z,29.27
2017-11-15T19:16:18.954Z,30.05
2017-11-15T19:18:46.414Z,32.10
2017-11-15T19:21:13.883Z,30.90
2017-11-15T19:23:41.335Z,31.35
2017-11-15T19:26:08.884Z,31.20
2017-11-15T19:28:36.347Z,31.70
2017-11-15T19:31:03.806Z,31.98
2017-11-15T19:33:31.267Z,27.95
2017-11-15T19:35:58.720Z,31.95
2017-11-15T19:38:26.176Z,32.17
2017-11-15T19:40:53.645Z,35.38
2017-11-15T19:43:21.871Z,32.90
2017-11-15T19:45:49.330Z,29.60
2017-11-15T19:48:16.795Z,39.25
2017-11-15T19:50:44.247Z,34.65
2017-11-15T19:53:11.706Z,34.75
2017-11-15T19:55:39.571Z,34.70
2017-11-15T19:58:07.056Z,36.45
2017-11-15T20:00:34.496Z,31.33
2017-11-15T20:03:01.951Z,30.40
2017-11-15T20:05:29.414Z,29.33
2017-11-15T20:07:56.871Z,32.67
2017-11-15T20:10:24.323Z,28.87
2017-11-15T20:12:51.886Z,32.25
2017-11-15T20:15:19.344Z,31.20
2017-11-15T20:17:46.807Z,26.90
2017-11-15T20:20:15.023Z,29.33
2017-11-15T20:22:42.477Z,29.80
2017-11-15T20:25:09.926Z,27.48
2017-11-15T20:27:38.263Z,25.50
2017-11-15T20:30:05.710Z,26.58
2017-11-15T20:32:33.171Z,34.10
2017-11-15T20:35:00.634Z,31.08
2017-11-15T20:37:28.087Z,30.10
2017-11-15T20:39:55.542Z,34.13
2017-11-15T20:42:22.995Z,36.15
2017-11-15T20:44:50.459Z,31.85
2017-11-15T20:47:17.914Z,29.40
2017-11-15T20:49:45.479Z,30.52
2017-11-15T20:52:12.934Z,31.02
2017-11-15T20:54:40.390Z,29.83
2017-11-15T20:57:07.942Z,31.85
2017-11-15T20:59:35.412Z,34.65
2017-11-15T21:02:02.866Z,33.42
2017-11-15T21:04:30.324Z,30.77
2017-11-15T21:06:57.879Z,37.30
2017-11-15T21:09:25.335Z,34.60
2017-11-15T21:11:52.786Z,36.25
2017-11-15T21:14:20.266Z,31.05
2017-11-15T21:16:47.700Z,32.65
2017-11-15T21:19:15.180Z,39.65
2017-11-15T21:21:42.634Z,34.40
2017-11-15T21:24:10.082Z,33.88
2017-11-15T21:26:37.547Z,31.95
2017-11-15T21:29:05.006Z,35.05
2017-11-15T21:31:32.548Z,30.33
2017-11-15T21:33:59.994Z,27.80
2017-11-15T21:36:27.459Z,29.45
2017-11-15T21:38:54.917Z,27.67
2017-11-15T21:41:22.369Z,26.92
2017-11-15T21:43:49.930Z,24.87
2017-11-15T21:46:17.390Z,27.95
2017-11-15T21:48:44.851Z,26.08
2017-11-15T21:51:12.312Z,28.52
2017-11-15T21:53:39.757Z,25.33
2017-11-15T21:56:07.227Z,24.87
2017-11-15T21:58:34.674Z,22.85
2017-11-15T22:02:37.774Z,23.62
2017-11-15T22:05:05.221Z,24.40
2017-11-15T22:07:32.684Z,20.55
2017-11-15T22:10:00.126Z,25.58
2017-11-15T22:12:27.691Z,23.35
2017-11-15T22:14:55.253Z,22.45
2017-11-15T22:17:22.714Z,20.88
2017-11-15T22:19:50.177Z,24.37
2017-11-15T22:22:17.640Z,22.27
2017-11-15T22:24:45.196Z,24.58
2017-11-15T22:27:12.650Z,24.77
2017-11-15T22:29:40.111Z,25.00
2017-11-15T22:32:07.566Z,24.98
2017-11-15T22:34:35.023Z,24.92
2017-11-15T22:37:02.750Z,27.20
2017-11-15T22:39:30.199Z,24.35
2017-11-15T22:41:57.654Z,24.52
2017-11-15T22:44:25.110Z,26.73
2017-11-15T22:46:52.565Z,25.05
2017-11-15T22:49:20.022Z,24.60
2017-11-15T22:51:47.476Z,24.70
2017-11-15T22:54:14.926Z,23.90
2017-11-15T22:56:42.379Z,25.58
2017-11-15T22:59:09.849Z,30.25
2017-11-15T23:01:37.344Z,31.55
2017-11-15T23:04:04.792Z,24.00
2017-11-15T23:06:32.356Z,31.35
2017-11-15T23:08:59.815Z,28.48
2017-11-15T23:11:27.271Z,26.05
2017-11-15T23:13:54.744Z,25.52
2017-11-15T23:16:22.192Z,26.20
2017-11-15T23:18:49.650Z,25.05
2017-11-15T23:21:17.121Z,23.20
2017-11-15T23:23:44.565Z,23.87
2017-11-15T23:26:12.031Z,25.65
2017-11-15T23:28:39.572Z,26.37
2017-11-15T23:31:07.018Z,27.50
2017-11-15T23:33:34.470Z,26.15
2017-11-15T23:36:01.930Z,28.48
2017-11-15T23:38:29.494Z,27.02
2017-11-15T23:40:57.056Z,31.35
2017-11-15T23:43:24.506Z,33.75
2017-11-15T23:45:52.072Z,31.30
2017-11-15T23:48:19.527Z,31.95
2017-11-15T23:50:46.991Z,31.73
2017-11-15T23:53:14.442Z,30.98
2017-11-15T23:55:41.902Z,30.92
2017-11-15T23:58:09.353Z,29.80
